Time;durP1;ratioP1;P1;durP2;ratioP2;P2;SDS_P1;SDS_P2;PMS_P1;PMS_P2;Temp;Humidity;BMP_temperature;BMP_pressure;BME280_temperature;BME280_humidity;BME280_pressure;Samples;Min_cycle;Max_cycle;Signal;HPM_P1;HPM_P2
2021/12/16 00:04:03;;;;;;;117.32;62.60;;;;;;;7.73;100.00;103321.94;5094641;28;20502;-57
2021/12/16 00:07:00;;;;;;;123.20;65.47;;;;;;;7.72;100.00;103320.13;5094946;28;20039;-56
2021/12/16 00:09:26;;;;;;;118.32;61.35;;;;;;;7.72;100.00;103316.66;5094974;28;20028;-56
2021/12/16 00:31:20;;;;;;;127.65;65.43;;;;;;;7.66;100.00;103316.19;5094234;28;20038;-56
2021/12/16 00:33:57;;;;;;;115.82;62.90;;;;;;;7.63;100.00;103324.53;5094851;28;20097;-56
2021/12/16 00:36:23;;;;;;;;;;;;;;;7.71;100.00;103320.91;5094376;28;20024;-57
2021/12/16 00:38:48;;;;;;;121.70;66.67;;;;;;;7.65;100.00;103328.09;5094044;28;19912;-57
2021/12/16 00:41:13;;;;;;;118.40;67.32;;;;;;;7.63;100.00;103332.22;5094808;28;20698;-57
2021/12/16 00:43:48;;;;;;;115.95;64.30;;;;;;;7.63;100.00;103324.53;5094671;28;20028;-56
2021/12/16 00:46:30;;;;;;;119.78;67.20;;;;;;;7.65;100.00;103324.66;5093816;28;20024;-57
2021/12/16 00:54:23;;;;;;;117.00;62.05;;;;;;;7.63;100.00;103324.53;5094340;28;20196;-57
2021/12/16 00:56:55;;;;;;;116.20;61.63;;;;;;;7.63;100.00;103324.53;5094133;28;20487;-57
2021/12/16 00:59:23;;;;;;;126.75;61.80;;;;;;;7.62;100.00;103327.88;5093475;28;20482;-56
2021/12/16 01:02:22;;;;;;;115.05;61.70;;;;;;;7.63;100.00;103323.59;5094294;28;20026;-56
2021/12/16 01:37:22;;;;;;;107.05;59.88;;;;;;;7.66;100.00;103352.13;5093948;28;20471;-56
2021/12/16 01:47:55;;;;;;;106.60;60.15;;;;;;;7.66;100.00;103359.81;5093583;28;20093;-57
2021/12/16 01:50:15;;;;;;;112.95;59.50;;;;;;;7.68;100.00;103363.38;5092124;28;20036;-56
2021/12/16 01:55:36;;;;;;;105.95;59.15;;;;;;;7.66;100.00;103364.94;5092855;28;20060;-57
2021/12/16 01:58:13;;;;;;;105.03;58.25;;;;;;;7.67;100.00;103370.19;5093469;28;20032;-56
2021/12/16 02:01:10;;;;;;;107.00;56.65;;;;;;;7.68;100.00;103365.94;5093275;28;20095;-56
2021/12/16 02:03:42;;;;;;;102.22;57.83;;;;;;;7.68;100.00;103368.53;5092264;28;20085;-57
2021/12/16 02:06:37;;;;;;;98.15;57.05;;;;;;;7.68;100.00;103379.69;5093273;28;20020;-56
2021/12/16 02:08:57;;;;;;;102.75;57.00;;;;;;;7.67;100.00;103364.16;5092334;28;20032;-56
2021/12/16 02:31:21;;;;;;;96.88;56.88;;;;;;;7.64;100.00;103376.75;5068025;28;20127;-56
2021/12/16 02:38:47;;;;;;;95.63;57.05;;;;;;;7.66;100.00;103388.06;5091969;28;20122;-57
2021/12/16 02:41:13;;;;;;;99.00;57.78;;;;;;;7.66;100.00;103382.91;5092735;28;20373;-57
2021/12/16 02:48:43;;;;;;;107.63;59.67;;;;;;;7.63;100.00;103398.03;5092640;28;20036;-56
2021/12/16 02:51:14;;;;;;;105.95;57.03;;;;;;;7.62;100.00;103396.25;5092630;28;20121;-56
2021/12/16 02:53:49;;;;;;;103.43;59.25;;;;;;;7.63;100.00;103390.34;5092720;28;20020;-56
2021/12/16 02:56:15;;;;;;;102.30;56.80;;;;;;;7.62;100.00;103391.09;5092794;28;20016;-56
2021/12/16 02:58:44;;;;;;;95.63;56.60;;;;;;;7.61;100.00;103391.91;5091809;28;20368;-56
2021/12/16 03:01:15;;;;;;;100.78;57.10;;;;;;;7.60;100.00;103392.66;5095207;28;20091;-56
2021/12/16 03:03:41;;;;;;;97.68;57.53;;;;;;;7.62;100.00;103385.97;5096341;28;20020;-56
2021/12/16 03:06:08;;;;;;;96.47;57.20;;;;;;;7.62;100.00;103391.09;5095583;28;20085;-57
2021/12/16 03:08:37;;;;;;;100.75;56.92;;;;;;;7.62;100.00;103386.88;5096703;28;20031;-56
2021/12/16 03:16:32;;;;;;;101.82;57.42;;;;;;;7.61;100.00;103381.63;5096046;28;20028;-56
2021/12/16 03:21:34;;;;;;;99.38;55.45;;;;;;;7.59;100.00;103381.47;5095572;28;20024;-56
2021/12/16 03:24:39;;;;;;;98.05;57.60;;;;;;;7.59;100.00;103378.91;5096055;28;20054;-57
2021/12/16 03:32:35;;;;;;;105.10;57.05;;;;;;;7.60;100.00;103390.97;5096058;28;20024;-56
2021/12/16 03:37:53;;;;;;;95.22;55.35;;;;;;;7.58;100.00;103389.97;5096047;28;20105;-57
2021/12/16 03:40:19;;;;;;;94.80;55.85;;;;;;;7.58;100.00;103385.72;5095765;28;20055;-57
2021/12/16 03:42:54;;;;;;;100.90;56.25;;;;;;;7.55;100.00;103382.94;5094770;28;20034;-56
2021/12/16 03:48:25;;;;;;;102.00;55.97;;;;;;;7.55;100.00;103393.19;5094740;28;20047;-57
2021/12/16 03:50:50;;;;;;;98.90;56.28;;;;;;;7.54;100.00;103386.25;5095325;28;20430;-56
2021/12/16 03:53:16;;;;;;;92.82;55.13;;;;;;;7.55;100.00;103395.75;5095529;28;20544;-57
2021/12/16 03:55:43;;;;;;;103.03;56.90;;;;;;;7.53;100.00;103398.97;5094908;28;20040;-57
2021/12/16 03:58:08;;;;;;;100.40;58.90;;;;;;;7.54;100.00;103401.66;5095318;28;20037;-57
2021/12/16 04:00:43;;;;;;;100.63;56.33;;;;;;;7.52;100.00;103410.88;5095564;28;20153;-56
2021/12/16 04:03:09;;;;;;;108.65;57.85;;;;;;;7.52;100.00;103408.31;5094536;28;20027;-56
2021/12/16 04:05:35;;;;;;;104.38;56.88;;;;;;;7.51;100.00;103406.50;5095405;28;20016;-57
2021/12/16 04:08:01;;;;;;;98.05;56.78;;;;;;;7.52;100.00;103405.75;5095136;28;20032;-56
2021/12/16 04:10:34;;;;;;;103.90;57.83;;;;;;;7.52;100.00;103418.59;5094319;28;20202;-56
2021/12/16 04:13:02;;;;;;;105.07;57.08;;;;;;;7.51;100.00;103414.22;5095357;28;20031;-56
2021/12/16 04:15:28;;;;;;;;;;;;;;;7.60;100.00;103410.63;5095688;28;20102;-57
2021/12/16 04:17:53;;;;;;;100.45;56.22;;;;;;;7.48;100.00;103408.84;5094381;28;19995;-56
2021/12/16 04:20:20;;;;;;;97.57;57.55;;;;;;;7.46;100.00;103402.66;5095149;28;20035;-56
2021/12/16 04:22:46;;;;;;;101.80;54.90;;;;;;;7.44;100.00;103413.56;5094122;28;20077;-56
2021/12/16 04:25:16;;;;;;;95.07;54.75;;;;;;;7.39;100.00;103406.38;5094900;28;20471;-57
2021/12/16 04:27:43;;;;;;;95.22;55.50;;;;;;;7.37;100.00;103402.81;5094671;28;20071;-56
2021/12/16 04:30:11;;;;;;;105.20;56.88;;;;;;;7.36;100.00;103400.09;5094300;28;20104;-56
2021/12/16 04:32:37;;;;;;;101.07;55.15;;;;;;;7.34;100.00;103407.66;5094868;28;20036;-56
2021/12/16 04:35:04;;;;;;;99.18;56.63;;;;;;;7.31;100.00;103404.88;5094693;28;20066;-56
2021/12/16 04:37:30;;;;;;;98.22;56.42;;;;;;;7.29;100.00;103402.94;5093794;28;20431;-56
2021/12/16 04:39:55;;;;;;;108.72;56.65;;;;;;;7.24;100.00;103399.97;5094711;28;20596;-56
2021/12/16 04:42:24;;;;;;;102.32;55.33;;;;;;;7.20;100.00;103397.94;5094532;28;20158;-57
2021/12/16 04:44:49;;;;;;;101.88;57.70;;;;;;;7.15;100.00;103394.97;5093749;28;20016;-56
2021/12/16 04:47:15;;;;;;;101.15;56.17;;;;;;;7.09;100.00;103403.03;5094472;28;20032;-56
2021/12/16 04:49:41;;;;;;;96.28;55.22;;;;;;;7.05;100.00;103400.06;5094363;28;20472;-56
2021/12/16 04:52:11;;;;;;;100.90;55.60;;;;;;;7.03;100.00;103404.19;5093513;28;20032;-56
2021/12/16 04:54:37;;;;;;;102.15;57.03;;;;;;;6.99;100.00;103391.88;5094539;28;20024;-57
2021/12/16 04:57:03;;;;;;;110.15;59.13;;;;;;;6.97;100.00;103409.72;5094309;28;20028;-57
2021/12/16 04:59:31;;;;;;;102.93;57.13;;;;;;;6.94;100.00;103403.41;5093389;28;20043;-56
2021/12/16 05:02:02;;;;;;;103.45;57.78;;;;;;;6.90;100.00;103408.25;5094161;28;20027;-56
2021/12/16 05:04:28;;;;;;;101.45;55.17;;;;;;;6.88;100.00;103407.25;5094146;28;20032;-56
2021/12/16 05:06:53;;;;;;;110.25;58.42;;;;;;;6.84;100.00;103407.75;5093199;28;20078;-56
2021/12/16 05:09:56;;;;;;;108.15;56.53;;;;;;;6.78;100.00;103412.34;5094095;28;20391;-56
2021/12/16 05:12:08;;;;;;;99.93;55.42;;;;;;;6.75;100.00;103406.94;5092875;28;20072;-56
2021/12/16 05:14:34;;;;;;;108.22;58.38;;;;;;;6.77;100.00;103410.53;5093698;28;20050;-56
2021/12/16 05:16:59;;;;;;;108.95;57.50;;;;;;;6.70;100.00;103410.75;5093810;28;20468;-56
2021/12/16 05:19:25;;;;;;;108.18;58.33;;;;;;;6.68;100.00;103415.75;5093006;28;20821;-57
2021/12/16 05:21:59;;;;;;;96.70;54.75;;;;;;;6.63;100.00;103418.72;5093838;28;20028;-57
2021/12/16 05:24:27;;;;;;;97.20;55.35;;;;;;;6.58;100.00;103416.66;5093292;28;20028;-57
2021/12/16 05:26:56;;;;;;;103.65;56.22;;;;;;;6.54;100.00;103416.22;5092828;28;20044;-57
2021/12/16 05:29:22;;;;;;;102.40;57.28;;;;;;;6.55;100.00;103425.72;5093651;28;20027;-56
2021/12/16 05:31:48;;;;;;;108.30;57.22;;;;;;;6.55;100.00;103424.03;5093370;28;20024;-57
2021/12/16 05:34:14;;;;;;;104.60;58.15;;;;;;;6.51;100.00;103427.09;5092678;28;20024;-57
2021/12/16 05:36:40;;;;;;;101.78;56.88;;;;;;;6.43;100.00;103423.88;5093812;28;20020;-56
2021/12/16 05:39:06;;;;;;;95.10;54.88;;;;;;;6.35;100.00;103423.97;5093545;28;20020;-56
2021/12/16 05:41:32;;;;;;;106.68;56.28;;;;;;;6.35;100.00;103436.75;5092552;28;20551;-56
2021/12/16 05:43:57;;;;;;;94.43;51.00;;;;;;;6.20;100.00;103437.19;5093180;28;20044;-56
2021/12/16 05:46:24;;;;;;;91.70;51.20;;;;;;;6.18;100.00;103445.50;5093308;28;20028;-56
2021/12/16 05:48:52;;;;;;;94.47;54.15;;;;;;;6.19;100.00;103444.75;5092734;28;20077;-56
2021/12/16 05:51:23;;;;;;;97.18;54.33;;;;;;;6.11;100.00;103446.63;5093088;28;20035;-56
2021/12/16 05:53:50;;;;;;;97.97;53.78;;;;;;;6.04;100.00;103446.81;5093265;28;20051;-56
2021/12/16 05:56:15;;;;;;;96.10;52.65;;;;;;;5.93;100.00;103444.16;5092584;28;20028;-56
2021/12/16 05:58:41;;;;;;;85.60;50.50;;;;;;;5.87;100.00;103445.28;5093143;28;20085;-57
2021/12/16 06:01:10;;;;;;;95.22;54.75;;;;;;;5.84;100.00;103458.69;5092867;28;20545;-56
2021/12/16 06:03:37;;;;;;;87.13;50.22;;;;;;;5.77;100.00;103466.56;5093163;28;20020;-56
2021/12/16 06:06:03;;;;;;;83.00;35.83;;;;;;;5.51;100.00;103467.63;5092951;28;20077;-57
2021/12/16 06:08:28;;;;;;;63.53;40.35;;;;;;;5.52;100.00;103473.66;5092326;28;20028;-56
2021/12/16 06:13:33;;;;;;;80.05;47.85;;;;;;;5.44;100.00;103460.16;5092952;28;20098;-56
2021/12/16 06:22:25;;;;;;;87.75;50.25;;;;;;;5.39;100.00;103471.63;5092332;28;20024;-56
2021/12/16 06:27:10;;;;;;;85.63;48.97;;;;;;;5.19;100.00;103469.75;5092537;28;20051;-56
2021/12/16 06:29:39;;;;;;;103.13;56.97;;;;;;;5.19;100.00;103473.22;5092078;28;20076;-57
2021/12/16 06:32:05;;;;;;;86.68;53.83;;;;;;;5.13;100.00;103477.75;5092595;28;20096;-56
2021/12/16 06:34:30;;;;;;;86.20;51.95;;;;;;;5.06;100.00;103481.38;5094469;28;20032;-56
2021/12/16 06:36:56;;;;;;;86.65;52.35;;;;;;;5.06;100.00;103481.38;5096171;28;20024;-56
2021/12/16 06:39:22;;;;;;;75.22;44.58;;;;;;;4.98;100.00;103491.63;5096833;28;20172;-56
2021/12/16 06:41:47;;;;;;;84.22;49.10;;;;;;;4.93;100.00;103479.31;5096669;28;20020;-57
2021/12/16 06:44:22;;;;;;;85.20;50.17;;;;;;;4.90;100.00;103483.25;5095793;28;20032;-56
2021/12/16 06:46:49;;;;;;;80.47;48.22;;;;;;;4.88;100.00;103488.22;5096383;28;20103;-56
2021/12/16 06:49:17;;;;;;;79.78;49.80;;;;;;;4.77;100.00;103483.72;5096783;28;20036;-56
2021/12/16 06:51:50;;;;;;;90.47;53.03;;;;;;;4.71;100.00;103478.00;5095965;28;20043;-56
2021/12/16 06:54:24;;;;;;;91.75;52.33;;;;;;;4.69;100.00;103489.75;5096628;28;20032;-56
2021/12/16 06:57:01;;;;;;;80.03;48.72;;;;;;;4.65;100.00;103490.19;5096441;28;20047;-56
2021/12/16 06:59:33;;;;;;;67.25;42.55;;;;;;;4.54;100.00;103489.16;5095519;28;20111;-56
2021/12/16 07:04:28;;;;;;;86.50;47.03;;;;;;;4.40;100.00;103498.97;5095323;28;20472;-56
2021/12/16 07:06:54;;;;;;;87.68;51.63;;;;;;;4.41;100.00;103499.84;5096125;28;20491;-56
2021/12/16 07:09:21;;;;;;;64.55;43.20;;;;;;;4.39;100.00;103501.34;5096090;28;20399;-56
2021/12/16 07:11:52;;;;;;;63.90;40.22;;;;;;;4.36;100.00;103501.94;5095181;28;20805;-56
2021/12/16 07:14:19;;;;;;;68.05;41.30;;;;;;;4.27;100.00;103507.06;5096227;28;20020;-57
2021/12/16 07:16:48;;;;;;;65.45;41.40;;;;;;;4.19;100.00;103513.06;5096109;28;20388;-56
2021/12/16 07:19:15;;;;;;;82.43;47.80;;;;;;;4.23;100.00;103515.16;5095237;28;20353;-56
2021/12/16 07:21:41;;;;;;;102.82;55.47;;;;;;;4.23;100.00;103520.25;5095911;28;20020;-56
2021/12/16 07:24:09;;;;;;;92.07;54.90;;;;;;;4.19;100.00;103530.91;5095574;28;20529;-56
2021/12/16 07:26:35;;;;;;;76.55;46.92;;;;;;;4.11;100.00;103539.47;5094967;28;20024;-56
2021/12/16 07:29:01;;;;;;;92.88;55.90;;;;;;;4.17;100.00;103537.56;5095644;28;20506;-56
2021/12/16 07:31:28;;;;;;;78.82;48.75;;;;;;;4.05;100.00;103546.53;5095784;28;20036;-57
2021/12/16 07:33:54;;;;;;;74.82;45.03;;;;;;;4.04;100.00;103547.25;5094991;28;20020;-56
2021/12/16 07:36:19;;;;;;;70.25;45.72;;;;;;;3.98;100.00;103552.66;5095540;28;20043;-56
2021/12/16 07:38:46;;;;;;;73.30;46.13;;;;;;;3.92;100.00;103550.38;5095413;28;20394;-57
2021/12/16 07:41:12;;;;;;;89.40;54.90;;;;;;;3.96;100.00;103554.16;5094954;28;20103;-56
2021/12/16 07:46:22;;;;;;;66.50;43.08;;;;;;;3.89;100.00;103567.94;5094714;28;20035;-56
2021/12/16 07:48:47;;;;;;;58.72;36.70;;;;;;;3.84;100.00;103574.25;5094531;28;20024;-56
2021/12/16 07:51:13;;;;;;;60.83;39.85;;;;;;;3.76;100.00;103578.56;5095312;28;20066;-56
2021/12/16 07:53:39;;;;;;;48.00;32.85;;;;;;;3.60;100.00;103588.88;5094649;28;20107;-57
2021/12/16 07:56:05;;;;;;;59.42;39.40;;;;;;;3.70;100.00;103600.00;5095267;28;20020;-56
2021/12/16 07:58:31;;;;;;;57.08;36.72;;;;;;;3.61;100.00;103600.84;5095419;28;20429;-56
2021/12/16 08:00:57;;;;;;;41.13;31.88;;;;;;;3.41;100.00;103601.38;5094348;28;20472;-56
2021/12/16 08:03:23;;;;;;;43.58;33.20;;;;;;;3.44;100.00;103603.34;5095025;28;20032;-56
2021/12/16 08:05:55;;;;;;;55.30;41.10;;;;;;;3.44;100.00;103608.44;5094855;28;20383;-56
2021/12/16 08:08:22;;;;;;;78.43;47.20;;;;;;;3.50;100.00;103603.97;5094350;28;20027;-56
2021/12/16 08:10:49;;;;;;;81.18;48.03;;;;;;;3.55;100.00;103610.44;5095003;28;20028;-56
2021/12/16 08:13:16;;;;;;;85.83;52.67;;;;;;;3.60;100.00;103603.25;5094952;28;20100;-56
2021/12/16 08:15:41;;;;;;;95.95;55.03;;;;;;;3.62;100.00;103612.88;5094193;28;20024;-57
2021/12/16 08:18:07;;;;;;;84.43;48.03;;;;;;;3.57;100.00;103621.69;5094703;28;20023;-56
2021/12/16 08:20:32;;;;;;;89.00;52.35;;;;;;;3.61;100.00;103626.34;5095186;28;20090;-57
2021/12/16 08:22:58;;;;;;;91.57;52.83;;;;;;;3.62;100.00;103615.41;5093890;28;20099;-56
2021/12/16 08:25:28;;;;;;;121.65;59.15;;;;;;;3.69;100.00;103623.69;5094849;28;20107;-57
2021/12/16 08:27:55;;;;;;;101.60;52.35;;;;;;;3.61;100.00;103630.56;5094311;28;20048;-56
2021/12/16 08:30:25;;;;;;;109.82;54.60;;;;;;;3.63;100.00;103639.28;5093709;28;20581;-56
2021/12/16 08:32:50;;;;;;;133.82;64.32;;;;;;;3.66;100.00;103628.50;5094422;28;20047;-56
2021/12/16 08:35:16;;;;;;;166.75;71.97;;;;;;;3.76;100.00;103632.13;5094314;28;20024;-56
2021/12/16 08:37:42;;;;;;;167.88;72.82;;;;;;;3.84;100.00;103635.47;5093749;28;20021;-56
2021/12/16 08:40:17;;;;;;;149.02;70.35;;;;;;;3.89;100.00;103636.84;5094409;28;20400;-56
2021/12/16 08:42:43;;;;;;;124.80;58.70;;;;;;;3.78;100.00;103632.28;5094240;28;20050;-56
2021/12/16 08:45:15;;;;;;;114.25;54.00;;;;;;;3.76;100.00;103636.34;5093505;28;20024;-55
2021/12/16 08:47:41;;;;;;;110.05;52.60;;;;;;;3.75;100.00;103647.28;5094126;28;20051;-56
2021/12/16 08:50:10;;;;;;;100.43;49.97;;;;;;;3.70;100.00;103651.91;5093301;28;20105;-56
2021/12/16 08:52:35;;;;;;;113.80;49.25;;;;;;;3.72;100.00;103654.59;5094171;28;20464;-56
2021/12/16 08:55:01;;;;;;;108.93;53.65;;;;;;;3.76;100.00;103661.84;5093992;28;20027;-56
2021/12/16 08:57:28;;;;;;;107.18;47.78;;;;;;;3.69;100.00;103667.94;5092297;28;20028;-56
2021/12/16 08:59:53;;;;;;;92.38;50.38;;;;;;;3.77;100.00;103664.56;5093735;28;20038;-56
2021/12/16 09:02:20;;;;;;;100.50;50.72;;;;;;;3.83;100.00;103663.38;5093841;28;20031;-56
2021/12/16 09:04:46;;;;;;;142.02;57.30;;;;;;;3.90;100.00;103676.94;5092933;28;20472;-56
2021/12/16 09:07:12;;;;;;;80.15;45.22;;;;;;;3.88;100.00;103678.41;5094000;28;20032;-57
2021/12/16 09:09:39;;;;;;;86.20;50.30;;;;;;;3.95;100.00;103680.84;5093932;28;20035;-57
2021/12/16 09:12:25;;;;;;;127.15;63.78;;;;;;;4.05;100.00;103666.47;5092816;28;20468;-56
2021/12/16 09:14:50;;;;;;;106.00;48.20;;;;;;;4.02;100.00;103671.28;5093658;28;20031;-55
2021/12/16 09:17:16;;;;;;;114.82;57.10;;;;;;;4.17;100.00;103679.56;5093859;28;20020;-56
2021/12/16 09:19:51;;;;;;;73.43;45.40;;;;;;;4.16;100.00;103676.13;5014462;27;3958247;-54
2021/12/16 09:22:19;;;;;;;81.32;47.88;;;;;;;4.23;100.00;103678.53;5131312;27;20478;-55
2021/12/16 09:24:46;;;;;;;113.72;59.00;;;;;;;4.36;100.00;103684.88;5131183;27;20031;-57
2021/12/16 09:27:12;;;;;;;87.75;49.72;;;;;;;4.32;100.00;103682.78;5130279;27;20020;-56
2021/12/16 09:29:38;;;;;;;87.53;50.50;;;;;;;4.48;100.00;103685.22;5131476;27;20039;-56
2021/12/16 09:32:04;;;;;;;120.45;59.67;;;;;;;4.60;100.00;103672.03;5130849;27;20385;-56
2021/12/16 09:34:31;;;;;;;92.13;47.60;;;;;;;4.52;100.00;103683.13;5130940;27;20049;-56
2021/12/16 09:36:57;;;;;;;83.43;47.38;;;;;;;4.71;100.00;103684.94;5130769;27;20489;-56
2021/12/16 09:39:25;;;;;;;103.72;55.00;;;;;;;4.75;100.00;103685.41;5130006;27;20118;-57
2021/12/16 09:41:55;;;;;;;75.13;46.75;;;;;;;4.72;100.00;103691.88;5130623;27;20055;-56
2021/12/16 09:44:22;;;;;;;66.95;43.78;;;;;;;4.79;100.00;103684.09;5130720;27;20517;-57
2021/12/16 09:46:50;;;;;;;65.40;48.07;;;;;;;4.95;100.00;103682.25;5129788;27;20421;-56
2021/12/16 09:49:17;;;;;;;74.68;48.33;;;;;;;4.97;100.00;103690.09;5130777;27;20137;-56
2021/12/16 09:51:43;;;;;;;105.95;60.67;;;;;;;5.10;100.00;103684.53;5130561;27;20542;-57
2021/12/16 09:54:14;;;;;;;80.22;54.33;;;;;;;5.28;100.00;103668.41;5129649;27;20027;-56
2021/12/16 09:56:42;;;;;;;99.05;63.67;;;;;;;5.50;100.00;103673.03;5130839;27;20038;-56
2021/12/16 09:59:12;;;;;;;95.22;59.25;;;;;;;5.60;100.00;103693.63;5130598;27;20043;-56
2021/12/16 10:01:38;;;;;;;120.45;77.78;;;;;;;5.94;100.00;103685.72;5129959;27;20161;-57
2021/12/16 10:04:09;;;;;;;203.50;115.88;;;;;;;6.44;100.00;103670.69;5130241;27;20098;-56
2021/12/16 10:06:38;;;;;;;185.70;108.82;;;;;;;6.65;100.00;103681.13;5130486;27;20023;-56
2021/12/16 10:09:07;;;;;;;130.30;78.00;;;;;;;6.66;100.00;103680.34;5129532;27;20421;-56
2021/12/16 10:11:35;;;;;;;118.70;77.57;;;;;;;6.91;100.00;103681.81;5130477;27;20467;-57
2021/12/16 10:14:15;;;;;;;113.00;74.60;;;;;;;7.06;100.00;103679.75;5130401;27;20027;-57
2021/12/16 10:19:32;;;;;;;107.57;73.78;;;;;;;7.33;100.00;103679.50;5130146;28;20085;-56
2021/12/16 10:22:21;;;;;;;104.53;70.72;;;;;;;7.49;100.00;103680.09;5129545;27;20160;-56
2021/12/16 10:24:48;;;;;;;105.57;69.57;;;;;;;7.52;100.00;103674.31;5130119;27;20024;-57
2021/12/16 10:27:24;;;;;;;99.40;67.00;;;;;;;7.61;100.00;103663.97;5130122;27;20371;-56
2021/12/16 10:30:04;;;;;;;99.30;64.80;;;;;;;7.64;100.00;103671.94;5123056;27;20020;-57
2021/12/16 10:32:43;;;;;;;101.18;66.40;;;;;;;7.73;100.00;103672.72;5116760;28;20020;-56
2021/12/16 10:35:09;;;;;;;98.80;66.40;;;;;;;7.85;100.00;103671.22;5116098;28;20432;-57
2021/12/16 10:37:41;;;;;;;94.00;65.33;;;;;;;7.94;100.00;103685.63;5115408;28;20028;-57
2021/12/16 10:40:36;;;;;;;91.53;63.25;;;;;;;8.10;100.00;103688.72;5116055;28;20331;-56
2021/12/16 10:43:12;;;;;;;88.38;60.85;;;;;;;8.07;100.00;103678.22;5097326;28;20031;-57
2021/12/16 10:45:47;;;;;;;86.53;60.92;;;;;;;8.16;100.00;103679.00;5116386;28;20028;-56
2021/12/16 10:48:23;;;;;;;78.30;56.85;;;;;;;8.32;100.00;103688.88;5115897;28;20451;-57
2021/12/16 10:51:01;;;;;;;83.25;56.58;;;;;;;8.37;100.00;103689.28;5115035;28;20020;-57
2021/12/16 10:53:51;;;;;;;80.20;53.97;;;;;;;8.58;100.00;103682.50;5115839;28;20031;-56
2021/12/16 10:56:19;;;;;;;82.95;56.10;;;;;;;8.88;100.00;103691.88;5115733;28;20027;-56
2021/12/16 10:58:59;;;;;;;70.90;48.65;;;;;;;9.10;100.00;103685.88;5114821;27;20020;-56
2021/12/16 11:01:36;;;;;;;70.32;49.05;;;;;;;9.38;100.00;103683.84;5115746;28;20073;-57
2021/12/16 11:04:07;;;;;;;63.00;45.90;;;;;;;9.64;100.00;103691.88;5114976;28;20028;-57
2021/12/16 11:06:40;;;;;;;60.33;41.60;;;;;;;9.94;100.00;103695.97;5115930;28;20030;-57
2021/12/16 11:09:26;;;;;;;57.38;39.50;;;;;;;10.33;100.00;103694.66;5115498;28;20030;-57
2021/12/16 11:12:13;;;;;;;53.08;36.58;;;;;;;10.76;97.44;103689.31;5114737;28;20015;-57
2021/12/16 11:14:42;;;;;;;53.33;33.88;;;;;;;11.07;94.06;103691.56;5115641;28;20020;-57
2021/12/16 11:17:10;;;;;;;52.08;31.98;;;;;;;11.36;92.35;103696.28;5115316;28;20027;-57
2021/12/16 11:19:46;;;;;;;46.55;32.40;;;;;;;11.53;91.04;103706.94;5114786;28;20052;-57
2021/12/16 11:22:15;;;;;;;45.00;31.27;;;;;;;11.65;88.16;103700.03;5115404;28;20032;-57
2021/12/16 11:24:40;;;;;;;48.33;30.80;;;;;;;11.91;87.73;103703.56;5114479;28;20023;-57
2021/12/16 11:27:27;;;;;;;43.05;29.92;;;;;;;12.30;90.86;103703.66;5115298;28;20019;-57
2021/12/16 11:29:54;;;;;;;43.08;28.83;;;;;;;12.30;87.18;103703.66;5114936;28;20371;-57
2021/12/16 11:32:40;;;;;;;41.05;27.60;;;;;;;12.56;89.62;103695.06;5114227;28;20019;-57
2021/12/16 11:35:32;;;;;;;43.95;25.80;;;;;;;12.81;89.17;103700.22;5115055;28;20111;-57
2021/12/16 11:38:03;;;;;;;43.58;25.85;;;;;;;12.38;84.20;103697.31;5083388;28;20027;-57
2021/12/16 11:40:48;;;;;;;43.10;26.23;;;;;;;12.45;87.75;103699.53;5114015;28;20023;-57
2021/12/16 11:43:13;;;;;;;39.88;25.15;;;;;;;12.13;83.89;103695.63;5114402;28;20435;-57
2021/12/16 11:45:39;;;;;;;40.47;26.98;;;;;;;12.15;84.58;103694.06;5114772;28;20538;-57
2021/12/16 11:48:07;;;;;;;43.65;26.30;;;;;;;12.02;84.44;103697.50;5113953;28;20051;-57
2021/12/16 11:50:34;;;;;;;;;;;;;;;12.45;91.70;103702.13;5115304;28;20023;-57
2021/12/16 11:53:00;;;;;;;37.97;24.75;;;;;;;11.88;85.07;103686.94;5113835;28;19965;-57
2021/12/16 11:55:25;;;;;;;43.90;26.13;;;;;;;11.69;85.79;103680.50;5114820;28;20028;-57
2021/12/16 11:58:01;;;;;;;49.00;27.02;;;;;;;11.51;86.35;103686.13;5114643;27;20424;-57
2021/12/16 12:00:33;;;;;;;39.17;24.65;;;;;;;11.45;86.08;103688.31;5113673;28;20470;-57
2021/12/16 12:03:12;;;;;;;42.55;25.40;;;;;;;11.34;87.11;103674.59;5114173;28;20023;-57
2021/12/16 12:05:42;;;;;;;41.50;25.95;;;;;;;11.29;87.36;103680.22;5114455;28;20019;-57
2021/12/16 12:08:15;;;;;;;42.38;26.35;;;;;;;11.38;88.34;103683.47;5113902;28;20038;-57
2021/12/16 12:10:46;;;;;;;47.05;26.90;;;;;;;11.49;87.56;103672.22;5114436;28;20027;-57
2021/12/16 12:13:14;;;;;;;44.78;25.73;;;;;;;11.45;86.50;103677.97;5114359;28;20096;-57
2021/12/16 12:15:56;;;;;;;40.35;24.25;;;;;;;11.59;87.89;103675.47;5113549;28;20528;-57
2021/12/16 12:18:33;;;;;;;40.80;24.73;;;;;;;11.63;86.64;103675.81;5114011;28;20055;-58
2021/12/16 12:21:37;;;;;;;40.75;25.55;;;;;;;11.72;87.52;103677.22;5113300;28;20463;-57
2021/12/16 12:24:08;;;;;;;41.70;25.35;;;;;;;11.59;85.15;103673.75;5113960;28;20497;-58
2021/12/16 12:26:58;;;;;;;40.00;25.65;;;;;;;11.75;85.34;103673.19;5114343;28;20389;-57
2021/12/16 12:29:34;;;;;;;37.25;24.58;;;;;;;11.72;85.56;103672.94;5112639;28;20039;-57
2021/12/16 12:32:03;;;;;;;43.92;24.42;;;;;;;11.89;84.12;103674.16;5113807;28;20421;-58
2021/12/16 12:34:30;;;;;;;43.55;26.10;;;;;;;11.93;83.90;103670.97;5113857;27;20030;-57
2021/12/16 12:36:58;;;;;;;42.05;24.90;;;;;;;12.17;82.97;103666.66;5112958;28;20038;-58
2021/12/16 12:39:30;;;;;;;44.15;24.95;;;;;;;12.24;81.87;103665.38;5114005;28;20036;-58
2021/12/16 12:41:57;;;;;;;43.08;24.80;;;;;;;12.28;81.37;103664.78;5113957;28;20054;-58
2021/12/16 12:44:24;;;;;;;45.40;26.63;;;;;;;12.39;80.41;103665.50;5113376;28;20023;-58
2021/12/16 12:46:51;;;;;;;44.03;25.42;;;;;;;12.42;79.93;103665.72;5113637;28;20024;-58
2021/12/16 12:49:24;;;;;;;51.22;27.40;;;;;;;12.44;80.68;103670.97;5112880;28;20098;-58
2021/12/16 12:51:50;;;;;;;45.00;27.75;;;;;;;12.54;80.63;103673.41;5113786;28;20104;-58
2021/12/16 12:54:17;;;;;;;40.90;26.80;;;;;;;12.59;81.08;103677.19;5113416;28;20040;-58
2021/12/16 12:56:43;;;;;;;44.97;27.67;;;;;;;12.65;79.48;103668.91;5112886;28;20102;-58
2021/12/16 12:59:11;;;;;;;45.90;27.35;;;;;;;12.73;79.58;103670.34;5113404;28;20101;-58
2021/12/16 13:01:57;;;;;;;47.58;27.42;;;;;;;12.91;80.80;103669.75;5113610;28;20028;-57
2021/12/16 13:04:43;;;;;;;46.50;27.17;;;;;;;13.13;79.92;103662.59;5112836;28;20019;-58
2021/12/16 13:07:12;;;;;;;47.20;26.52;;;;;;;13.13;77.06;103669.44;5113640;28;20019;-58
2021/12/16 13:09:42;;;;;;;52.47;28.30;;;;;;;12.97;77.64;103659.78;5113617;28;20084;-58
2021/12/16 13:12:37;;;;;;;44.75;27.05;;;;;;;13.00;80.23;103655.72;5112736;28;20098;-58
2021/12/16 13:15:31;;;;;;;50.47;26.65;;;;;;;12.84;80.53;103652.91;5113451;28;20379;-57
2021/12/16 13:26:24;;;;;;;49.53;28.38;;;;;;;11.73;81.90;103664.41;5112220;28;20038;-57
2021/12/16 13:29:39;;;;;;;47.38;28.38;;;;;;;11.69;84.00;103660.72;5112928;28;20077;-57
2021/12/16 13:34:51;;;;;;;44.38;28.33;;;;;;;11.27;83.35;103668.88;5113204;28;20085;-57
2021/12/16 13:37:30;;;;;;;48.42;28.45;;;;;;;11.20;84.83;103676.19;5112943;28;20458;-57
2021/12/16 13:40:06;;;;;;;49.85;27.83;;;;;;;11.04;84.80;103670.72;5112250;28;20024;-57
2021/12/16 13:42:56;;;;;;;52.53;29.10;;;;;;;10.99;85.83;103672.94;5113209;28;20039;-57
2021/12/16 13:45:45;;;;;;;45.88;28.00;;;;;;;10.92;84.93;103674.97;5112233;28;20543;-57
2021/12/16 14:10:19;;;;;;;48.95;26.67;;;;;;;10.90;85.72;103685.19;5112935;28;20019;-57
2021/12/16 14:16:13;;;;;;;41.35;25.92;;;;;;;10.53;85.91;103679.84;5112971;28;20481;-57
2021/12/16 14:25:04;;;;;;;43.78;26.50;;;;;;;10.21;87.36;103686.91;5115552;28;20086;-56